sensor_id;sensor_type;location;lat;lon;timestamp;temperature;humidity
27164;DHT22;14685;50.618;7.024;2023-08-30T00:01:39;18.40;99.90
27164;DHT22;14685;50.618;7.024;2023-08-30T00:04:06;18.40;99.90
27164;DHT22;14685;50.618;7.024;2023-08-30T00:06:34;18.40;99.90
27164;DHT22;14685;50.618;7.024;2023-08-30T00:09:01;18.40;99.90
27164;DHT22;14685;50.618;7.024;2023-08-30T00:11:28;18.40;99.90
27164;DHT22;14685;50.618;7.024;2023-08-30T00:14:05;18.40;99.90
27164;DHT22;14685;50.618;7.024;2023-08-30T00:16:33;18.40;99.90
27164;DHT22;14685;50.618;7.024;2023-08-30T00:19:00;18.40;99.90
27164;DHT22;14685;50.618;7.024;2023-08-30T00:21:28;18.40;99.90
27164;DHT22;14685;50.618;7.024;2023-08-30T00:23:55;18.40;99.90
27164;DHT22;14685;50.618;7.024;2023-08-30T00:26:22;18.40;99.90
27164;DHT22;14685;50.618;7.024;2023-08-30T00:28:48;18.40;99.90
27164;DHT22;14685;50.618;7.024;2023-08-30T00:31:16;18.40;99.90
27164;DHT22;14685;50.618;7.024;2023-08-30T00:33:44;18.40;99.90
27164;DHT22;14685;50.618;7.024;2023-08-30T00:36:11;18.40;99.90
27164;DHT22;14685;50.618;7.024;2023-08-30T00:38:38;18.40;99.90
27164;DHT22;14685;50.618;7.024;2023-08-30T00:41:05;18.40;99.90
27164;DHT22;14685;50.618;7.024;2023-08-30T00:43:32;18.30;99.90
27164;DHT22;14685;50.618;7.024;2023-08-30T00:45:59;18.30;99.90
27164;DHT22;14685;50.618;7.024;2023-08-30T00:48:27;18.30;99.90
27164;DHT22;14685;50.618;7.024;2023-08-30T00:50:54;18.30;99.90
27164;DHT22;14685;50.618;7.024;2023-08-30T00:53:22;18.30;99.90
27164;DHT22;14685;50.618;7.024;2023-08-30T00:55:49;18.30;99.90
27164;DHT22;14685;50.618;7.024;2023-08-30T00:58:16;18.30;99.90
27164;DHT22;14685;50.618;7.024;2023-08-30T01:00:43;18.30;99.90
27164;DHT22;14685;50.618;7.024;2023-08-30T01:03:10;18.20;99.90
27164;DHT22;14685;50.618;7.024;2023-08-30T01:05:37;18.20;99.90
27164;DHT22;14685;50.618;7.024;2023-08-30T01:08:04;18.30;99.90
27164;DHT22;14685;50.618;7.024;2023-08-30T01:10:44;18.30;99.90
27164;DHT22;14685;50.618;7.024;2023-08-30T01:13:16;18.30;99.90
27164;DHT22;14685;50.618;7.024;2023-08-30T01:15:47;18.20;99.90
27164;DHT22;14685;50.618;7.024;2023-08-30T01:18:17;18.20;99.90
27164;DHT22;14685;50.618;7.024;2023-08-30T01:20:45;18.20;99.90
27164;DHT22;14685;50.618;7.024;2023-08-30T01:26:24;18.20;99.90
27164;DHT22;14685;50.618;7.024;2023-08-30T01:28:55;18.20;99.90
27164;DHT22;14685;50.618;7.024;2023-08-30T01:31:24;18.20;99.90
27164;DHT22;14685;50.618;7.024;2023-08-30T01:33:52;18.10;99.90
27164;DHT22;14685;50.618;7.024;2023-08-30T01:36:20;18.20;99.90
27164;DHT22;14685;50.618;7.024;2023-08-30T01:38:47;18.10;99.90
27164;DHT22;14685;50.618;7.024;2023-08-30T01:41:14;18.10;99.90
27164;DHT22;14685;50.618;7.024;2023-08-30T01:43:42;18.10;99.90
27164;DHT22;14685;50.618;7.024;2023-08-30T01:46:10;18.10;99.90
27164;DHT22;14685;50.618;7.024;2023-08-30T01:48:37;18.10;99.90
27164;DHT22;14685;50.618;7.024;2023-08-30T01:51:06;18.10;99.90
27164;DHT22;14685;50.618;7.024;2023-08-30T01:53:34;18.00;99.90
27164;DHT22;14685;50.618;7.024;2023-08-30T01:56:01;18.00;99.90
27164;DHT22;14685;50.618;7.024;2023-08-30T01:58:29;18.00;99.90
27164;DHT22;14685;50.618;7.024;2023-08-30T02:00:56;18.00;99.90
27164;DHT22;14685;50.618;7.024;2023-08-30T02:03:23;18.00;99.90
27164;DHT22;14685;50.618;7.024;2023-08-30T02:06:07;18.00;99.90
27164;DHT22;14685;50.618;7.024;2023-08-30T02:08:41;18.00;99.90
27164;DHT22;14685;50.618;7.024;2023-08-30T02:11:14;18.00;99.90
27164;DHT22;14685;50.618;7.024;2023-08-30T02:13:44;18.00;99.90
27164;DHT22;14685;50.618;7.024;2023-08-30T02:16:13;17.90;99.90
27164;DHT22;14685;50.618;7.024;2023-08-30T02:18:42;17.90;99.90
27164;DHT22;14685;50.618;7.024;2023-08-30T02:21:10;17.90;99.90
27164;DHT22;14685;50.618;7.024;2023-08-30T02:23:37;17.90;99.90
27164;DHT22;14685;50.618;7.024;2023-08-30T02:26:04;17.90;99.90
27164;DHT22;14685;50.618;7.024;2023-08-30T02:28:31;17.90;99.90
27164;DHT22;14685;50.618;7.024;2023-08-30T02:30:58;17.90;99.90
27164;DHT22;14685;50.618;7.024;2023-08-30T02:33:24;17.90;99.90
27164;DHT22;14685;50.618;7.024;2023-08-30T02:35:51;17.90;99.90
27164;DHT22;14685;50.618;7.024;2023-08-30T02:38:20;17.90;99.90
27164;DHT22;14685;50.618;7.024;2023-08-30T02:40:47;17.90;99.90
27164;DHT22;14685;50.618;7.024;2023-08-30T02:43:14;18.00;99.90
27164;DHT22;14685;50.618;7.024;2023-08-30T02:45:41;17.90;99.90
27164;DHT22;14685;50.618;7.024;2023-08-30T02:48:08;17.90;99.90
27164;DHT22;14685;50.618;7.024;2023-08-30T02:50:36;17.90;99.90
27164;DHT22;14685;50.618;7.024;2023-08-30T02:53:03;17.90;99.90
27164;DHT22;14685;50.618;7.024;2023-08-30T02:55:31;17.90;99.90
27164;DHT22;14685;50.618;7.024;2023-08-30T02:57:57;17.90;99.90
27164;DHT22;14685;50.618;7.024;2023-08-30T03:00:24;17.90;99.90
27164;DHT22;14685;50.618;7.024;2023-08-30T03:02:52;17.90;99.90
27164;DHT22;14685;50.618;7.024;2023-08-30T03:05:19;17.80;99.90
27164;DHT22;14685;50.618;7.024;2023-08-30T03:07:46;17.80;99.90
27164;DHT22;14685;50.618;7.024;2023-08-30T03:10:14;17.80;99.90
27164;DHT22;14685;50.618;7.024;2023-08-30T03:12:41;17.80;99.90
27164;DHT22;14685;50.618;7.024;2023-08-30T03:15:08;17.80;99.90
27164;DHT22;14685;50.618;7.024;2023-08-30T03:17:35;17.80;99.90
27164;DHT22;14685;50.618;7.024;2023-08-30T03:20:04;17.70;99.90
27164;DHT22;14685;50.618;7.024;2023-08-30T03:22:32;17.70;99.90
27164;DHT22;14685;50.618;7.024;2023-08-30T03:24:59;17.60;99.90
27164;DHT22;14685;50.618;7.024;2023-08-30T03:27:27;17.50;99.90
27164;DHT22;14685;50.618;7.024;2023-08-30T03:29:55;17.50;99.90
27164;DHT22;14685;50.618;7.024;2023-08-30T03:32:22;17.50;99.90
27164;DHT22;14685;50.618;7.024;2023-08-30T03:34:50;17.50;99.90
27164;DHT22;14685;50.618;7.024;2023-08-30T03:37:17;17.50;99.90
27164;DHT22;14685;50.618;7.024;2023-08-30T03:39:44;17.40;99.90
27164;DHT22;14685;50.618;7.024;2023-08-30T03:42:15;17.40;99.90
27164;DHT22;14685;50.618;7.024;2023-08-30T03:44:42;17.50;99.90
27164;DHT22;14685;50.618;7.024;2023-08-30T03:47:09;17.50;99.90
27164;DHT22;14685;50.618;7.024;2023-08-30T03:49:36;17.50;99.90
27164;DHT22;14685;50.618;7.024;2023-08-30T03:52:04;17.40;99.90
27164;DHT22;14685;50.618;7.024;2023-08-30T03:54:31;17.40;99.90
27164;DHT22;14685;50.618;7.024;2023-08-30T03:56:58;17.40;99.90
27164;DHT22;14685;50.618;7.024;2023-08-30T03:59:25;17.40;99.90
27164;DHT22;14685;50.618;7.024;2023-08-30T04:01:54;17.30;99.90
27164;DHT22;14685;50.618;7.024;2023-08-30T04:04:21;17.30;99.90
27164;DHT22;14685;50.618;7.024;2023-08-30T04:06:49;17.20;99.90
27164;DHT22;14685;50.618;7.024;2023-08-30T04:09:16;17.00;99.90
27164;DHT22;14685;50.618;7.024;2023-08-30T04:11:44;17.00;99.90
27164;DHT22;14685;50.618;7.024;2023-08-30T04:14:11;17.00;99.90
27164;DHT22;14685;50.618;7.024;2023-08-30T04:16:37;17.00;99.90
27164;DHT22;14685;50.618;7.024;2023-08-30T04:19:05;16.90;99.90
27164;DHT22;14685;50.618;7.024;2023-08-30T04:21:32;16.90;99.90
27164;DHT22;14685;50.618;7.024;2023-08-30T04:23:59;16.90;99.90
27164;DHT22;14685;50.618;7.024;2023-08-30T04:26:27;16.90;99.90
27164;DHT22;14685;50.618;7.024;2023-08-30T04:28:54;16.90;99.90
27164;DHT22;14685;50.618;7.024;2023-08-30T04:31:21;16.90;99.90
27164;DHT22;14685;50.618;7.024;2023-08-30T04:33:48;16.90;99.90
27164;DHT22;14685;50.618;7.024;2023-08-30T04:36:15;16.90;99.90
27164;DHT22;14685;50.618;7.024;2023-08-30T04:38:42;16.90;99.90
27164;DHT22;14685;50.618;7.024;2023-08-30T04:41:26;16.90;99.90
27164;DHT22;14685;50.618;7.024;2023-08-30T04:43:53;16.80;99.90
27164;DHT22;14685;50.618;7.024;2023-08-30T04:46:20;16.70;99.90
27164;DHT22;14685;50.618;7.024;2023-08-30T04:48:47;16.70;99.90
27164;DHT22;14685;50.618;7.024;2023-08-30T04:51:14;16.70;99.90
27164;DHT22;14685;50.618;7.024;2023-08-30T04:53:41;16.70;99.90
27164;DHT22;14685;50.618;7.024;2023-08-30T04:56:14;16.80;99.90
27164;DHT22;14685;50.618;7.024;2023-08-30T04:58:41;16.70;99.90
27164;DHT22;14685;50.618;7.024;2023-08-30T05:01:08;16.70;99.90
27164;DHT22;14685;50.618;7.024;2023-08-30T05:03:36;16.70;99.90
27164;DHT22;14685;50.618;7.024;2023-08-30T05:06:05;16.70;99.90
27164;DHT22;14685;50.618;7.024;2023-08-30T05:08:32;16.70;99.90
27164;DHT22;14685;50.618;7.024;2023-08-30T05:11:01;16.70;99.90
27164;DHT22;14685;50.618;7.024;2023-08-30T05:13:32;16.70;99.90
27164;DHT22;14685;50.618;7.024;2023-08-30T05:15:59;16.60;99.90
27164;DHT22;14685;50.618;7.024;2023-08-30T05:18:26;16.70;99.90
27164;DHT22;14685;50.618;7.024;2023-08-30T05:20:53;16.70;99.90
27164;DHT22;14685;50.618;7.024;2023-08-30T05:23:20;16.60;99.90
27164;DHT22;14685;50.618;7.024;2023-08-30T05:25:47;16.50;99.90
27164;DHT22;14685;50.618;7.024;2023-08-30T05:28:14;16.50;99.90
27164;DHT22;14685;50.618;7.024;2023-08-30T05:30:42;16.50;99.90
27164;DHT22;14685;50.618;7.024;2023-08-30T05:33:11;16.40;99.90
27164;DHT22;14685;50.618;7.024;2023-08-30T05:35:38;16.30;99.90
27164;DHT22;14685;50.618;7.024;2023-08-30T05:38:05;16.30;99.90
27164;DHT22;14685;50.618;7.024;2023-08-30T05:40:33;16.30;99.90
27164;DHT22;14685;50.618;7.024;2023-08-30T05:43:00;16.30;99.90
27164;DHT22;14685;50.618;7.024;2023-08-30T05:45:26;16.30;99.90
27164;DHT22;14685;50.618;7.024;2023-08-30T05:47:54;16.30;99.90
27164;DHT22;14685;50.618;7.024;2023-08-30T05:50:21;16.30;99.90
27164;DHT22;14685;50.618;7.024;2023-08-30T05:52:48;16.30;99.90
27164;DHT22;14685;50.618;7.024;2023-08-30T05:55:15;16.30;99.90
27164;DHT22;14685;50.618;7.024;2023-08-30T05:57:43;16.30;99.90
27164;DHT22;14685;50.618;7.024;2023-08-30T06:00:10;16.30;99.90
27164;DHT22;14685;50.618;7.024;2023-08-30T06:02:37;16.30;99.90
27164;DHT22;14685;50.618;7.024;2023-08-30T06:05:04;16.30;99.90
27164;DHT22;14685;50.618;7.024;2023-08-30T06:07:32;16.30;99.90
27164;DHT22;14685;50.618;7.024;2023-08-30T06:09:59;16.30;99.90
27164;DHT22;14685;50.618;7.024;2023-08-30T06:12:25;16.30;99.90
27164;DHT22;14685;50.618;7.024;2023-08-30T06:14:53;16.20;99.90
27164;DHT22;14685;50.618;7.024;2023-08-30T06:17:21;16.20;99.90
27164;DHT22;14685;50.618;7.024;2023-08-30T06:19:48;16.20;99.90
27164;DHT22;14685;50.618;7.024;2023-08-30T06:22:15;16.30;99.90
27164;DHT22;14685;50.618;7.024;2023-08-30T06:24:42;16.30;99.90
27164;DHT22;14685;50.618;7.024;2023-08-30T06:27:09;16.30;99.90
27164;DHT22;14685;50.618;7.024;2023-08-30T06:29:36;16.40;99.90
27164;DHT22;14685;50.618;7.024;2023-08-30T06:32:04;16.50;99.90
27164;DHT22;14685;50.618;7.024;2023-08-30T06:34:31;16.50;99.90
27164;DHT22;14685;50.618;7.024;2023-08-30T06:36:59;16.60;99.90
27164;DHT22;14685;50.618;7.024;2023-08-30T06:39:35;16.70;99.90
27164;DHT22;14685;50.618;7.024;2023-08-30T06:42:03;16.70;99.90
27164;DHT22;14685;50.618;7.024;2023-08-30T06:44:30;16.70;99.90
27164;DHT22;14685;50.618;7.024;2023-08-30T06:46:58;16.90;99.90
27164;DHT22;14685;50.618;7.024;2023-08-30T06:49:32;17.00;99.90
27164;DHT22;14685;50.618;7.024;2023-08-30T06:51:59;17.10;99.90
27164;DHT22;14685;50.618;7.024;2023-08-30T06:54:32;17.30;99.90
27164;DHT22;14685;50.618;7.024;2023-08-30T06:57:00;17.40;99.90
27164;DHT22;14685;50.618;7.024;2023-08-30T06:59:27;17.60;99.90
27164;DHT22;14685;50.618;7.024;2023-08-30T07:01:55;17.70;99.90
27164;DHT22;14685;50.618;7.024;2023-08-30T07:04:24;17.90;99.90
27164;DHT22;14685;50.618;7.024;2023-08-30T07:06:51;18.00;99.90
27164;DHT22;14685;50.618;7.024;2023-08-30T07:09:18;18.20;99.90
27164;DHT22;14685;50.618;7.024;2023-08-30T07:11:48;18.20;99.90
27164;DHT22;14685;50.618;7.024;2023-08-30T07:14:16;18.20;99.90
27164;DHT22;14685;50.618;7.024;2023-08-30T07:16:43;18.30;99.90
27164;DHT22;14685;50.618;7.024;2023-08-30T07:19:11;18.50;99.90
27164;DHT22;14685;50.618;7.024;2023-08-30T07:21:38;18.60;99.90
27164;DHT22;14685;50.618;7.024;2023-08-30T07:24:06;18.80;99.90
27164;DHT22;14685;50.618;7.024;2023-08-30T07:26:34;19.00;99.90
27164;DHT22;14685;50.618;7.024;2023-08-30T07:29:03;19.10;99.90
27164;DHT22;14685;50.618;7.024;2023-08-30T07:31:33;19.40;99.90
27164;DHT22;14685;50.618;7.024;2023-08-30T07:34:00;19.50;99.90
27164;DHT22;14685;50.618;7.024;2023-08-30T07:36:27;19.60;99.90
27164;DHT22;14685;50.618;7.024;2023-08-30T07:39:13;19.70;99.90
27164;DHT22;14685;50.618;7.024;2023-08-30T07:41:40;19.80;99.90
27164;DHT22;14685;50.618;7.024;2023-08-30T07:44:07;20.00;99.90
27164;DHT22;14685;50.618;7.024;2023-08-30T07:46:34;20.10;99.90
27164;DHT22;14685;50.618;7.024;2023-08-30T07:49:02;20.10;99.90
27164;DHT22;14685;50.618;7.024;2023-08-30T07:51:29;20.20;99.90
27164;DHT22;14685;50.618;7.024;2023-08-30T07:53:57;20.30;99.90
27164;DHT22;14685;50.618;7.024;2023-08-30T07:56:24;20.30;99.90
27164;DHT22;14685;50.618;7.024;2023-08-30T07:58:51;20.50;99.90
27164;DHT22;14685;50.618;7.024;2023-08-30T08:01:18;20.60;99.90
27164;DHT22;14685;50.618;7.024;2023-08-30T08:03:45;20.80;99.90
27164;DHT22;14685;50.618;7.024;2023-08-30T08:06:32;20.90;99.90
27164;DHT22;14685;50.618;7.024;2023-08-30T08:09:00;21.10;99.90
27164;DHT22;14685;50.618;7.024;2023-08-30T08:11:27;21.30;99.90
27164;DHT22;14685;50.618;7.024;2023-08-30T08:13:54;21.50;99.90
27164;DHT22;14685;50.618;7.024;2023-08-30T08:16:21;21.60;99.90
27164;DHT22;14685;50.618;7.024;2023-08-30T08:18:48;21.70;99.90
27164;DHT22;14685;50.618;7.024;2023-08-30T08:21:17;21.80;99.90
27164;DHT22;14685;50.618;7.024;2023-08-30T08:23:44;21.90;99.90
27164;DHT22;14685;50.618;7.024;2023-08-30T08:26:11;21.90;99.90
27164;DHT22;14685;50.618;7.024;2023-08-30T08:28:38;22.00;99.90
27164;DHT22;14685;50.618;7.024;2023-08-30T08:31:06;22.10;99.90
27164;DHT22;14685;50.618;7.024;2023-08-30T08:33:33;22.20;99.90
27164;DHT22;14685;50.618;7.024;2023-08-30T08:36:00;22.30;99.90
27164;DHT22;14685;50.618;7.024;2023-08-30T08:38:29;22.30;99.90
27164;DHT22;14685;50.618;7.024;2023-08-30T08:41:16;22.40;99.90
27164;DHT22;14685;50.618;7.024;2023-08-30T08:43:43;22.50;99.90
27164;DHT22;14685;50.618;7.024;2023-08-30T08:46:13;22.60;99.90
27164;DHT22;14685;50.618;7.024;2023-08-30T08:48:43;22.70;99.90
27164;DHT22;14685;50.618;7.024;2023-08-30T08:51:11;22.70;99.90
27164;DHT22;14685;50.618;7.024;2023-08-30T08:53:39;22.70;99.90
27164;DHT22;14685;50.618;7.024;2023-08-30T08:56:06;22.80;99.90
27164;DHT22;14685;50.618;7.024;2023-08-30T08:58:36;22.70;99.90
27164;DHT22;14685;50.618;7.024;2023-08-30T09:01:04;22.80;99.90
27164;DHT22;14685;50.618;7.024;2023-08-30T09:03:34;22.80;99.90
27164;DHT22;14685;50.618;7.024;2023-08-30T09:06:03;23.00;99.90
27164;DHT22;14685;50.618;7.024;2023-08-30T09:08:29;23.20;99.90
27164;DHT22;14685;50.618;7.024;2023-08-30T09:11:00;23.20;99.90
27164;DHT22;14685;50.618;7.024;2023-08-30T09:13:27;23.30;99.90
27164;DHT22;14685;50.618;7.024;2023-08-30T09:15:54;23.20;99.90
27164;DHT22;14685;50.618;7.024;2023-08-30T09:18:21;23.00;99.90
27164;DHT22;14685;50.618;7.024;2023-08-30T09:20:48;23.10;99.90
27164;DHT22;14685;50.618;7.024;2023-08-30T09:23:21;23.00;99.90
27164;DHT22;14685;50.618;7.024;2023-08-30T09:25:54;23.00;99.90
27164;DHT22;14685;50.618;7.024;2023-08-30T09:28:22;23.00;99.90
27164;DHT22;14685;50.618;7.024;2023-08-30T09:30:51;22.90;99.90
27164;DHT22;14685;50.618;7.024;2023-08-30T09:33:22;22.90;99.90
27164;DHT22;14685;50.618;7.024;2023-08-30T09:35:49;22.80;99.90
27164;DHT22;14685;50.618;7.024;2023-08-30T09:38:18;22.80;99.90
27164;DHT22;14685;50.618;7.024;2023-08-30T09:40:45;22.70;99.90
27164;DHT22;14685;50.618;7.024;2023-08-30T09:43:13;22.70;99.90
27164;DHT22;14685;50.618;7.024;2023-08-30T09:45:41;22.60;99.90
27164;DHT22;14685;50.618;7.024;2023-08-30T09:48:08;22.50;99.90
27164;DHT22;14685;50.618;7.024;2023-08-30T09:50:36;22.40;99.90
27164;DHT22;14685;50.618;7.024;2023-08-30T09:53:07;22.40;99.90
27164;DHT22;14685;50.618;7.024;2023-08-30T09:55:38;22.40;99.90
27164;DHT22;14685;50.618;7.024;2023-08-30T09:58:06;22.50;99.90
27164;DHT22;14685;50.618;7.024;2023-08-30T10:00:33;22.40;99.90
27164;DHT22;14685;50.618;7.024;2023-08-30T10:03:00;22.40;99.90
27164;DHT22;14685;50.618;7.024;2023-08-30T10:05:48;22.50;99.90
27164;DHT22;14685;50.618;7.024;2023-08-30T10:08:15;22.50;99.90
27164;DHT22;14685;50.618;7.024;2023-08-30T10:10:44;22.50;99.90
27164;DHT22;14685;50.618;7.024;2023-08-30T10:13:12;22.50;99.90
27164;DHT22;14685;50.618;7.024;2023-08-30T10:15:44;22.50;99.90
27164;DHT22;14685;50.618;7.024;2023-08-30T10:18:15;22.50;99.90
27164;DHT22;14685;50.618;7.024;2023-08-30T10:20:45;22.40;99.90
27164;DHT22;14685;50.618;7.024;2023-08-30T10:23:14;22.40;99.90
27164;DHT22;14685;50.618;7.024;2023-08-30T10:25:42;22.30;99.90
27164;DHT22;14685;50.618;7.024;2023-08-30T10:28:10;22.30;99.90
27164;DHT22;14685;50.618;7.024;2023-08-30T10:30:39;22.10;99.90
27164;DHT22;14685;50.618;7.024;2023-08-30T10:33:15;22.10;99.90
27164;DHT22;14685;50.618;7.024;2023-08-30T10:35:49;22.10;99.90
27164;DHT22;14685;50.618;7.024;2023-08-30T10:38:28;22.00;99.90
27164;DHT22;14685;50.618;7.024;2023-08-30T10:40:55;22.10;99.90
27164;DHT22;14685;50.618;7.024;2023-08-30T10:43:34;22.10;99.90
27164;DHT22;14685;50.618;7.024;2023-08-30T10:46:03;22.10;99.90
27164;DHT22;14685;50.618;7.024;2023-08-30T10:48:37;22.10;99.90
27164;DHT22;14685;50.618;7.024;2023-08-30T10:51:19;22.10;99.90
27164;DHT22;14685;50.618;7.024;2023-08-30T10:53:56;22.10;99.90
27164;DHT22;14685;50.618;7.024;2023-08-30T10:56:30;22.10;99.90
27164;DHT22;14685;50.618;7.024;2023-08-30T10:59:02;22.10;99.90
27164;DHT22;14685;50.618;7.024;2023-08-30T11:01:30;22.10;99.90
27164;DHT22;14685;50.618;7.024;2023-08-30T11:03:57;22.10;99.90
27164;DHT22;14685;50.618;7.024;2023-08-30T11:06:42;22.10;99.90
27164;DHT22;14685;50.618;7.024;2023-08-30T11:09:10;22.30;99.90
27164;DHT22;14685;50.618;7.024;2023-08-30T11:11:38;22.30;99.90
27164;DHT22;14685;50.618;7.024;2023-08-30T11:14:07;22.40;99.90
27164;DHT22;14685;50.618;7.024;2023-08-30T11:16:36;22.50;99.90
27164;DHT22;14685;50.618;7.024;2023-08-30T11:19:06;22.60;99.90
27164;DHT22;14685;50.618;7.024;2023-08-30T11:21:36;22.60;99.90
27164;DHT22;14685;50.618;7.024;2023-08-30T11:24:04;22.70;99.90
27164;DHT22;14685;50.618;7.024;2023-08-30T11:26:32;22.70;99.90
27164;DHT22;14685;50.618;7.024;2023-08-30T11:29:07;22.70;99.90
27164;DHT22;14685;50.618;7.024;2023-08-30T11:31:35;22.70;99.90
27164;DHT22;14685;50.618;7.024;2023-08-30T11:34:02;22.70;99.90
27164;DHT22;14685;50.618;7.024;2023-08-30T11:36:31;22.70;99.90
27164;DHT22;14685;50.618;7.024;2023-08-30T11:38:59;22.70;99.90
27164;DHT22;14685;50.618;7.024;2023-08-30T11:41:26;22.60;99.90
27164;DHT22;14685;50.618;7.024;2023-08-30T11:43:54;22.60;99.90
27164;DHT22;14685;50.618;7.024;2023-08-30T11:46:21;22.60;99.90
27164;DHT22;14685;50.618;7.024;2023-08-30T11:48:50;22.50;99.90
27164;DHT22;14685;50.618;7.024;2023-08-30T11:51:18;22.60;99.90
27164;DHT22;14685;50.618;7.024;2023-08-30T11:53:46;22.60;99.90
27164;DHT22;14685;50.618;7.024;2023-08-30T11:56:14;22.60;99.90
27164;DHT22;14685;50.618;7.024;2023-08-30T11:58:41;22.60;99.90
27164;DHT22;14685;50.618;7.024;2023-08-30T12:01:08;22.70;99.90
27164;DHT22;14685;50.618;7.024;2023-08-30T12:03:35;22.70;99.90
27164;DHT22;14685;50.618;7.024;2023-08-30T12:06:12;22.70;99.90
27164;DHT22;14685;50.618;7.024;2023-08-30T12:08:39;22.70;99.90
27164;DHT22;14685;50.618;7.024;2023-08-30T12:11:20;22.70;99.90
27164;DHT22;14685;50.618;7.024;2023-08-30T12:13:47;22.70;99.90
27164;DHT22;14685;50.618;7.024;2023-08-30T12:16:16;22.70;99.90
27164;DHT22;14685;50.618;7.024;2023-08-30T12:18:44;22.80;99.90
27164;DHT22;14685;50.618;7.024;2023-08-30T12:21:13;22.70;99.90
27164;DHT22;14685;50.618;7.024;2023-08-30T12:23:41;22.70;99.90
27164;DHT22;14685;50.618;7.024;2023-08-30T12:26:12;22.70;99.90
27164;DHT22;14685;50.618;7.024;2023-08-30T12:28:40;22.70;99.90
27164;DHT22;14685;50.618;7.024;2023-08-30T12:31:07;22.70;99.90
27164;DHT22;14685;50.618;7.024;2023-08-30T12:33:35;22.70;99.90
27164;DHT22;14685;50.618;7.024;2023-08-30T12:36:02;22.60;99.90
27164;DHT22;14685;50.618;7.024;2023-08-30T12:38:30;22.60;99.90
27164;DHT22;14685;50.618;7.024;2023-08-30T12:40:57;22.50;99.90
27164;DHT22;14685;50.618;7.024;2023-08-30T12:43:24;22.50;99.90
27164;DHT22;14685;50.618;7.024;2023-08-30T12:45:51;22.40;99.90
27164;DHT22;14685;50.618;7.024;2023-08-30T12:48:19;22.40;99.90
27164;DHT22;14685;50.618;7.024;2023-08-30T12:50:47;22.50;99.90
27164;DHT22;14685;50.618;7.024;2023-08-30T12:53:15;22.60;99.90
27164;DHT22;14685;50.618;7.024;2023-08-30T12:55:45;22.60;99.90
27164;DHT22;14685;50.618;7.024;2023-08-30T12:58:12;22.70;99.90
27164;DHT22;14685;50.618;7.024;2023-08-30T13:00:40;22.70;99.90
27164;DHT22;14685;50.618;7.024;2023-08-30T13:03:08;22.70;99.90
27164;DHT22;14685;50.618;7.024;2023-08-30T13:05:36;22.70;99.90
27164;DHT22;14685;50.618;7.024;2023-08-30T13:08:03;22.60;99.90
27164;DHT22;14685;50.618;7.024;2023-08-30T13:10:31;22.60;99.90
27164;DHT22;14685;50.618;7.024;2023-08-30T13:12:58;22.60;99.90
27164;DHT22;14685;50.618;7.024;2023-08-30T13:15:25;22.50;99.90
27164;DHT22;14685;50.618;7.024;2023-08-30T13:17:53;22.50;99.90
27164;DHT22;14685;50.618;7.024;2023-08-30T13:20:21;22.40;99.90
27164;DHT22;14685;50.618;7.024;2023-08-30T13:22:48;22.30;99.90
27164;DHT22;14685;50.618;7.024;2023-08-30T13:25:15;22.30;99.90
27164;DHT22;14685;50.618;7.024;2023-08-30T13:30:09;22.20;99.90
27164;DHT22;14685;50.618;7.024;2023-08-30T13:32:37;22.10;99.90
27164;DHT22;14685;50.618;7.024;2023-08-30T13:35:04;22.00;99.90
27164;DHT22;14685;50.618;7.024;2023-08-30T13:37:32;22.00;99.90
27164;DHT22;14685;50.618;7.024;2023-08-30T13:40:00;22.00;99.90
27164;DHT22;14685;50.618;7.024;2023-08-30T13:42:26;22.00;99.90
27164;DHT22;14685;50.618;7.024;2023-08-30T13:44:54;22.00;99.90
27164;DHT22;14685;50.618;7.024;2023-08-30T13:47:21;22.00;99.90
27164;DHT22;14685;50.618;7.024;2023-08-30T13:49:48;22.00;99.90
27164;DHT22;14685;50.618;7.024;2023-08-30T13:52:16;21.90;99.90
27164;DHT22;14685;50.618;7.024;2023-08-30T13:54:44;21.90;99.90
27164;DHT22;14685;50.618;7.024;2023-08-30T13:57:11;21.80;99.90
27164;DHT22;14685;50.618;7.024;2023-08-30T13:59:38;21.80;99.90
27164;DHT22;14685;50.618;7.024;2023-08-30T14:02:07;21.70;99.90
27164;DHT22;14685;50.618;7.024;2023-08-30T14:04:34;21.60;99.90
27164;DHT22;14685;50.618;7.024;2023-08-30T14:07:04;21.60;99.90
27164;DHT22;14685;50.618;7.024;2023-08-30T14:09:32;21.60;99.90
27164;DHT22;14685;50.618;7.024;2023-08-30T14:11:59;21.60;99.90
27164;DHT22;14685;50.618;7.024;2023-08-30T14:14:26;21.50;99.90
27164;DHT22;14685;50.618;7.024;2023-08-30T14:16:53;21.50;99.90
27164;DHT22;14685;50.618;7.024;2023-08-30T14:19:20;21.50;99.90
27164;DHT22;14685;50.618;7.024;2023-08-30T14:21:48;21.50;99.90
27164;DHT22;14685;50.618;7.024;2023-08-30T14:24:16;21.50;99.90
27164;DHT22;14685;50.618;7.024;2023-08-30T14:26:43;21.40;99.90
27164;DHT22;14685;50.618;7.024;2023-08-30T14:29:10;21.40;99.90
27164;DHT22;14685;50.618;7.024;2023-08-30T14:31:37;21.40;99.90
27164;DHT22;14685;50.618;7.024;2023-08-30T14:34:05;21.40;99.90
27164;DHT22;14685;50.618;7.024;2023-08-30T14:36:32;21.40;99.90
27164;DHT22;14685;50.618;7.024;2023-08-30T14:38:59;21.30;99.90
27164;DHT22;14685;50.618;7.024;2023-08-30T14:41:26;21.50;99.90
27164;DHT22;14685;50.618;7.024;2023-08-30T14:43:54;21.20;99.90
27164;DHT22;14685;50.618;7.024;2023-08-30T14:48:50;21.20;99.90
27164;DHT22;14685;50.618;7.024;2023-08-30T14:51:17;20.90;99.90
27164;DHT22;14685;50.618;7.024;2023-08-30T14:53:44;20.80;99.90
27164;DHT22;14685;50.618;7.024;2023-08-30T14:56:11;20.80;99.90
27164;DHT22;14685;50.618;7.024;2023-08-30T14:58:39;20.80;99.90
27164;DHT22;14685;50.618;7.024;2023-08-30T15:01:09;20.70;99.90
27164;DHT22;14685;50.618;7.024;2023-08-30T15:03:37;20.60;99.90
27164;DHT22;14685;50.618;7.024;2023-08-30T15:06:05;20.70;99.90
27164;DHT22;14685;50.618;7.024;2023-08-30T15:08:32;20.60;99.90
27164;DHT22;14685;50.618;7.024;2023-08-30T15:11:01;20.60;99.90
27164;DHT22;14685;50.618;7.024;2023-08-30T15:13:30;20.60;99.90
27164;DHT22;14685;50.618;7.024;2023-08-30T15:15:57;20.60;99.90
27164;DHT22;14685;50.618;7.024;2023-08-30T15:18:25;20.60;99.90
27164;DHT22;14685;50.618;7.024;2023-08-30T15:20:52;20.70;99.90
27164;DHT22;14685;50.618;7.024;2023-08-30T15:23:20;20.60;99.90
27164;DHT22;14685;50.618;7.024;2023-08-30T15:25:48;20.70;99.90
27164;DHT22;14685;50.618;7.024;2023-08-30T15:28:16;20.60;99.90
27164;DHT22;14685;50.618;7.024;2023-08-30T15:30:45;20.60;99.90
27164;DHT22;14685;50.618;7.024;2023-08-30T15:33:12;20.60;99.90
27164;DHT22;14685;50.618;7.024;2023-08-30T15:35:46;20.50;99.90
27164;DHT22;14685;50.618;7.024;2023-08-30T15:38:14;20.60;99.90
27164;DHT22;14685;50.618;7.024;2023-08-30T15:40:42;20.60;99.90
27164;DHT22;14685;50.618;7.024;2023-08-30T15:43:09;20.50;99.90
27164;DHT22;14685;50.618;7.024;2023-08-30T15:45:37;20.60;99.90